sensor_id;sensor_type;location;lat;lon;timestamp;temperature;humidity
34829;DHT22;21042;47.620;12.188;2023-09-12T00:00:36;17.60;99.90
34829;DHT22;21042;47.620;12.188;2023-09-12T00:03:03;17.60;99.90
34829;DHT22;21042;47.620;12.188;2023-09-12T00:05:30;17.60;99.90
34829;DHT22;21042;47.620;12.188;2023-09-12T00:07:57;17.70;99.90
34829;DHT22;21042;47.620;12.188;2023-09-12T00:10:23;17.70;99.90
34829;DHT22;21042;47.620;12.188;2023-09-12T00:12:50;17.70;99.90
34829;DHT22;21042;47.620;12.188;2023-09-12T00:15:16;17.80;99.90
34829;DHT22;21042;47.620;12.188;2023-09-12T00:17:46;17.80;99.90
34829;DHT22;21042;47.620;12.188;2023-09-12T00:20:15;17.80;99.90
34829;DHT22;21042;47.620;12.188;2023-09-12T00:22:41;17.80;99.90
34829;DHT22;21042;47.620;12.188;2023-09-12T00:25:08;17.80;99.90
34829;DHT22;21042;47.620;12.188;2023-09-12T00:27:35;17.70;99.90
34829;DHT22;21042;47.620;12.188;2023-09-12T00:30:02;17.70;99.90
34829;DHT22;21042;47.620;12.188;2023-09-12T00:32:29;17.70;99.90
34829;DHT22;21042;47.620;12.188;2023-09-12T00:34:55;17.80;99.90
34829;DHT22;21042;47.620;12.188;2023-09-12T00:37:23;17.70;99.90
34829;DHT22;21042;47.620;12.188;2023-09-12T00:39:50;17.70;99.90
34829;DHT22;21042;47.620;12.188;2023-09-12T00:42:17;17.70;99.90
34829;DHT22;21042;47.620;12.188;2023-09-12T00:44:44;17.70;99.90
34829;DHT22;21042;47.620;12.188;2023-09-12T00:47:10;17.70;99.90
34829;DHT22;21042;47.620;12.188;2023-09-12T00:49:38;17.60;99.90
34829;DHT22;21042;47.620;12.188;2023-09-12T00:52:06;17.60;99.90
34829;DHT22;21042;47.620;12.188;2023-09-12T00:54:32;17.50;99.90
34829;DHT22;21042;47.620;12.188;2023-09-12T00:56:59;17.50;99.90
34829;DHT22;21042;47.620;12.188;2023-09-12T00:59:27;17.50;99.90
34829;DHT22;21042;47.620;12.188;2023-09-12T01:01:53;17.50;99.90
34829;DHT22;21042;47.620;12.188;2023-09-12T01:04:20;17.50;99.90
34829;DHT22;21042;47.620;12.188;2023-09-12T01:07:00;17.30;99.90
34829;DHT22;21042;47.620;12.188;2023-09-12T01:09:27;17.40;99.90
34829;DHT22;21042;47.620;12.188;2023-09-12T01:11:54;17.40;99.90
34829;DHT22;21042;47.620;12.188;2023-09-12T01:14:21;17.40;99.90
34829;DHT22;21042;47.620;12.188;2023-09-12T01:16:48;17.30;99.90
34829;DHT22;21042;47.620;12.188;2023-09-12T01:19:15;17.30;99.90
34829;DHT22;21042;47.620;12.188;2023-09-12T01:24:41;17.30;99.90
34829;DHT22;21042;47.620;12.188;2023-09-12T01:27:28;17.30;99.90
34829;DHT22;21042;47.620;12.188;2023-09-12T01:29:57;17.10;99.90
34829;DHT22;21042;47.620;12.188;2023-09-12T01:32:26;16.90;99.90
34829;DHT22;21042;47.620;12.188;2023-09-12T01:34:54;16.80;99.90
34829;DHT22;21042;47.620;12.188;2023-09-12T01:37:20;16.70;99.90
34829;DHT22;21042;47.620;12.188;2023-09-12T01:39:47;16.70;99.90
34829;DHT22;21042;47.620;12.188;2023-09-12T01:42:18;16.70;99.90
34829;DHT22;21042;47.620;12.188;2023-09-12T01:44:45;16.70;99.90
34829;DHT22;21042;47.620;12.188;2023-09-12T01:47:12;16.70;99.90
34829;DHT22;21042;47.620;12.188;2023-09-12T01:49:42;16.70;99.90
34829;DHT22;21042;47.620;12.188;2023-09-12T01:52:09;16.80;99.90
34829;DHT22;21042;47.620;12.188;2023-09-12T01:54:36;16.80;99.90
34829;DHT22;21042;47.620;12.188;2023-09-12T01:57:03;16.80;99.90
34829;DHT22;21042;47.620;12.188;2023-09-12T01:59:31;16.80;99.90
34829;DHT22;21042;47.620;12.188;2023-09-12T02:01:57;16.80;99.90
34829;DHT22;21042;47.620;12.188;2023-09-12T02:04:24;16.90;99.90
34829;DHT22;21042;47.620;12.188;2023-09-12T02:06:51;16.90;99.90
34829;DHT22;21042;47.620;12.188;2023-09-12T02:09:18;16.90;99.90
34829;DHT22;21042;47.620;12.188;2023-09-12T02:11:46;16.90;99.90
34829;DHT22;21042;47.620;12.188;2023-09-12T02:14:12;16.90;99.90
34829;DHT22;21042;47.620;12.188;2023-09-12T02:16:39;16.90;99.90
34829;DHT22;21042;47.620;12.188;2023-09-12T02:19:10;16.90;99.90
34829;DHT22;21042;47.620;12.188;2023-09-12T02:21:39;16.90;99.90
34829;DHT22;21042;47.620;12.188;2023-09-12T02:24:06;16.90;99.90
34829;DHT22;21042;47.620;12.188;2023-09-12T02:26:33;16.90;99.90
34829;DHT22;21042;47.620;12.188;2023-09-12T02:29:03;16.90;99.90
34829;DHT22;21042;47.620;12.188;2023-09-12T02:31:32;16.90;99.90
34829;DHT22;21042;47.620;12.188;2023-09-12T02:33:59;16.80;99.90
34829;DHT22;21042;47.620;12.188;2023-09-12T02:36:26;16.80;99.90
34829;DHT22;21042;47.620;12.188;2023-09-12T02:38:52;16.80;99.90
34829;DHT22;21042;47.620;12.188;2023-09-12T02:41:19;16.70;99.90
34829;DHT22;21042;47.620;12.188;2023-09-12T02:43:46;16.80;99.90
34829;DHT22;21042;47.620;12.188;2023-09-12T02:46:13;16.80;99.90
34829;DHT22;21042;47.620;12.188;2023-09-12T02:48:40;16.70;99.90
34829;DHT22;21042;47.620;12.188;2023-09-12T02:51:08;16.70;99.90
34829;DHT22;21042;47.620;12.188;2023-09-12T02:53:34;16.60;99.90
34829;DHT22;21042;47.620;12.188;2023-09-12T02:56:01;16.70;99.90
34829;DHT22;21042;47.620;12.188;2023-09-12T02:58:28;16.60;99.90
34829;DHT22;21042;47.620;12.188;2023-09-12T03:00:55;16.50;99.90
34829;DHT22;21042;47.620;12.188;2023-09-12T03:03:21;16.40;99.90
34829;DHT22;21042;47.620;12.188;2023-09-12T03:05:56;16.40;99.90
34829;DHT22;21042;47.620;12.188;2023-09-12T03:08:23;16.40;99.90
34829;DHT22;21042;47.620;12.188;2023-09-12T03:10:56;16.30;99.90
34829;DHT22;21042;47.620;12.188;2023-09-12T03:13:24;16.30;99.90
34829;DHT22;21042;47.620;12.188;2023-09-12T03:15:51;16.30;99.90
34829;DHT22;21042;47.620;12.188;2023-09-12T03:18:18;16.40;99.90
34829;DHT22;21042;47.620;12.188;2023-09-12T03:20:45;16.30;99.90
34829;DHT22;21042;47.620;12.188;2023-09-12T03:23:12;16.30;99.90
34829;DHT22;21042;47.620;12.188;2023-09-12T03:25:39;16.20;99.90
34829;DHT22;21042;47.620;12.188;2023-09-12T03:28:06;16.20;99.90
34829;DHT22;21042;47.620;12.188;2023-09-12T03:30:33;16.20;99.90
34829;DHT22;21042;47.620;12.188;2023-09-12T03:33:00;16.20;99.90
34829;DHT22;21042;47.620;12.188;2023-09-12T03:35:33;16.10;99.90
34829;DHT22;21042;47.620;12.188;2023-09-12T03:38:01;16.10;99.90
34829;DHT22;21042;47.620;12.188;2023-09-12T03:40:28;16.10;99.90
34829;DHT22;21042;47.620;12.188;2023-09-12T03:42:56;16.10;99.90
34829;DHT22;21042;47.620;12.188;2023-09-12T03:45:23;16.00;99.90
34829;DHT22;21042;47.620;12.188;2023-09-12T03:47:51;16.10;99.90
34829;DHT22;21042;47.620;12.188;2023-09-12T03:50:18;16.00;99.90
34829;DHT22;21042;47.620;12.188;2023-09-12T03:52:44;16.00;99.90
34829;DHT22;21042;47.620;12.188;2023-09-12T03:55:11;16.00;99.90
34829;DHT22;21042;47.620;12.188;2023-09-12T03:57:38;15.90;99.90
34829;DHT22;21042;47.620;12.188;2023-09-12T04:00:05;15.90;99.90
34829;DHT22;21042;47.620;12.188;2023-09-12T04:02:39;15.90;99.90
34829;DHT22;21042;47.620;12.188;2023-09-12T04:05:06;15.90;99.90
34829;DHT22;21042;47.620;12.188;2023-09-12T04:07:33;15.90;99.90
34829;DHT22;21042;47.620;12.188;2023-09-12T04:10:00;15.90;99.90
34829;DHT22;21042;47.620;12.188;2023-09-12T04:12:26;15.90;99.90
34829;DHT22;21042;47.620;12.188;2023-09-12T04:14:53;16.00;99.90
34829;DHT22;21042;47.620;12.188;2023-09-12T04:17:21;15.90;99.90
34829;DHT22;21042;47.620;12.188;2023-09-12T04:19:48;15.90;99.90
34829;DHT22;21042;47.620;12.188;2023-09-12T04:22:15;16.00;99.90
34829;DHT22;21042;47.620;12.188;2023-09-12T04:24:42;15.90;99.90
34829;DHT22;21042;47.620;12.188;2023-09-12T04:27:09;15.90;99.90
34829;DHT22;21042;47.620;12.188;2023-09-12T04:29:36;15.80;99.90
34829;DHT22;21042;47.620;12.188;2023-09-12T04:32:04;15.90;99.90
34829;DHT22;21042;47.620;12.188;2023-09-12T04:34:33;15.90;99.90
34829;DHT22;21042;47.620;12.188;2023-09-12T04:36:59;15.90;99.90
34829;DHT22;21042;47.620;12.188;2023-09-12T04:39:29;15.90;99.90
34829;DHT22;21042;47.620;12.188;2023-09-12T04:41:56;15.90;99.90
34829;DHT22;21042;47.620;12.188;2023-09-12T04:44:23;15.80;99.90
34829;DHT22;21042;47.620;12.188;2023-09-12T04:46:50;15.70;99.90
34829;DHT22;21042;47.620;12.188;2023-09-12T04:49:17;15.60;99.90
34829;DHT22;21042;47.620;12.188;2023-09-12T04:51:44;15.50;99.90
34829;DHT22;21042;47.620;12.188;2023-09-12T04:54:11;15.40;99.90
34829;DHT22;21042;47.620;12.188;2023-09-12T04:56:38;15.40;99.90
34829;DHT22;21042;47.620;12.188;2023-09-12T04:59:05;15.60;99.90
34829;DHT22;21042;47.620;12.188;2023-09-12T05:01:33;15.50;99.90
34829;DHT22;21042;47.620;12.188;2023-09-12T05:04:00;15.50;99.90
34829;DHT22;21042;47.620;12.188;2023-09-12T05:06:27;15.50;99.90
34829;DHT22;21042;47.620;12.188;2023-09-12T05:08:54;15.60;99.90
34829;DHT22;21042;47.620;12.188;2023-09-12T05:11:24;15.60;99.90
34829;DHT22;21042;47.620;12.188;2023-09-12T05:13:50;15.70;99.90
34829;DHT22;21042;47.620;12.188;2023-09-12T05:16:19;15.60;99.90
34829;DHT22;21042;47.620;12.188;2023-09-12T05:18:46;15.60;99.90
34829;DHT22;21042;47.620;12.188;2023-09-12T05:21:13;15.60;99.90
34829;DHT22;21042;47.620;12.188;2023-09-12T05:23:40;15.70;99.90
34829;DHT22;21042;47.620;12.188;2023-09-12T05:26:06;15.60;99.90
34829;DHT22;21042;47.620;12.188;2023-09-12T05:28:33;15.70;99.90
34829;DHT22;21042;47.620;12.188;2023-09-12T05:31:00;15.70;99.90
34829;DHT22;21042;47.620;12.188;2023-09-12T05:33:29;15.80;99.90
34829;DHT22;21042;47.620;12.188;2023-09-12T05:35:59;15.80;99.90
34829;DHT22;21042;47.620;12.188;2023-09-12T05:38:27;15.90;99.90
34829;DHT22;21042;47.620;12.188;2023-09-12T05:40:54;15.90;99.90
34829;DHT22;21042;47.620;12.188;2023-09-12T05:43:21;16.10;99.90
34829;DHT22;21042;47.620;12.188;2023-09-12T05:45:47;16.10;99.90
34829;DHT22;21042;47.620;12.188;2023-09-12T05:48:14;16.10;99.90
34829;DHT22;21042;47.620;12.188;2023-09-12T05:50:41;16.20;99.90
34829;DHT22;21042;47.620;12.188;2023-09-12T05:53:08;16.20;99.90
34829;DHT22;21042;47.620;12.188;2023-09-12T05:55:35;16.20;99.90
34829;DHT22;21042;47.620;12.188;2023-09-12T05:58:02;16.30;99.90
34829;DHT22;21042;47.620;12.188;2023-09-12T06:00:33;16.30;99.90
34829;DHT22;21042;47.620;12.188;2023-09-12T06:03:00;16.30;99.90
34829;DHT22;21042;47.620;12.188;2023-09-12T06:05:27;16.30;99.90
34829;DHT22;21042;47.620;12.188;2023-09-12T06:07:54;16.20;99.90
34829;DHT22;21042;47.620;12.188;2023-09-12T06:10:21;16.10;99.90
34829;DHT22;21042;47.620;12.188;2023-09-12T06:12:47;16.10;99.90
34829;DHT22;21042;47.620;12.188;2023-09-12T06:15:16;16.10;99.90
34829;DHT22;21042;47.620;12.188;2023-09-12T06:17:43;16.20;99.90
34829;DHT22;21042;47.620;12.188;2023-09-12T06:20:10;16.30;99.90
34829;DHT22;21042;47.620;12.188;2023-09-12T06:22:36;16.30;99.90
34829;DHT22;21042;47.620;12.188;2023-09-12T06:25:03;16.40;99.90
34829;DHT22;21042;47.620;12.188;2023-09-12T06:27:30;16.50;99.90
34829;DHT22;21042;47.620;12.188;2023-09-12T06:29:58;16.70;99.90
34829;DHT22;21042;47.620;12.188;2023-09-12T06:32:25;16.90;99.90
34829;DHT22;21042;47.620;12.188;2023-09-12T06:34:51;17.00;99.90
34829;DHT22;21042;47.620;12.188;2023-09-12T06:37:18;17.20;99.90
34829;DHT22;21042;47.620;12.188;2023-09-12T06:39:48;17.40;99.90
34829;DHT22;21042;47.620;12.188;2023-09-12T06:42:15;17.60;99.90
34829;DHT22;21042;47.620;12.188;2023-09-12T06:44:42;17.80;99.90
34829;DHT22;21042;47.620;12.188;2023-09-12T06:47:09;17.90;99.90
34829;DHT22;21042;47.620;12.188;2023-09-12T06:49:36;18.10;99.90
34829;DHT22;21042;47.620;12.188;2023-09-12T06:52:04;18.20;99.90
34829;DHT22;21042;47.620;12.188;2023-09-12T06:54:32;18.20;99.90
34829;DHT22;21042;47.620;12.188;2023-09-12T06:56:59;18.30;99.90
34829;DHT22;21042;47.620;12.188;2023-09-12T06:59:25;18.50;99.90
34829;DHT22;21042;47.620;12.188;2023-09-12T07:01:52;18.50;99.90
34829;DHT22;21042;47.620;12.188;2023-09-12T07:04:19;18.70;99.90
34829;DHT22;21042;47.620;12.188;2023-09-12T07:06:46;18.80;99.90
34829;DHT22;21042;47.620;12.188;2023-09-12T07:09:12;18.90;99.90
34829;DHT22;21042;47.620;12.188;2023-09-12T07:11:41;19.00;99.90
34829;DHT22;21042;47.620;12.188;2023-09-12T07:14:11;19.10;99.90
34829;DHT22;21042;47.620;12.188;2023-09-12T07:16:38;19.10;99.90
34829;DHT22;21042;47.620;12.188;2023-09-12T07:19:04;19.20;99.90
34829;DHT22;21042;47.620;12.188;2023-09-12T07:21:31;19.30;99.90
34829;DHT22;21042;47.620;12.188;2023-09-12T07:23:58;19.50;99.90
34829;DHT22;21042;47.620;12.188;2023-09-12T07:26:25;19.40;99.90
34829;DHT22;21042;47.620;12.188;2023-09-12T07:28:54;19.60;99.90
34829;DHT22;21042;47.620;12.188;2023-09-12T07:31:20;19.60;99.90
34829;DHT22;21042;47.620;12.188;2023-09-12T07:33:47;19.70;99.90
34829;DHT22;21042;47.620;12.188;2023-09-12T07:36:14;19.70;99.90
34829;DHT22;21042;47.620;12.188;2023-09-12T07:38:41;19.90;99.90
34829;DHT22;21042;47.620;12.188;2023-09-12T07:41:09;19.90;99.90
34829;DHT22;21042;47.620;12.188;2023-09-12T07:43:36;20.00;99.90
34829;DHT22;21042;47.620;12.188;2023-09-12T07:46:02;20.20;99.90
34829;DHT22;21042;47.620;12.188;2023-09-12T07:48:30;20.30;99.90
34829;DHT22;21042;47.620;12.188;2023-09-12T07:50:57;20.50;99.90
34829;DHT22;21042;47.620;12.188;2023-09-12T07:53:23;20.60;99.90
34829;DHT22;21042;47.620;12.188;2023-09-12T07:55:50;20.80;99.90
34829;DHT22;21042;47.620;12.188;2023-09-12T07:58:17;20.80;99.90
34829;DHT22;21042;47.620;12.188;2023-09-12T08:00:45;20.90;99.90
34829;DHT22;21042;47.620;12.188;2023-09-12T08:03:12;20.90;99.90
34829;DHT22;21042;47.620;12.188;2023-09-12T08:05:39;21.00;99.90
34829;DHT22;21042;47.620;12.188;2023-09-12T08:08:06;21.10;99.90
34829;DHT22;21042;47.620;12.188;2023-09-12T08:10:33;21.10;99.90
34829;DHT22;21042;47.620;12.188;2023-09-12T08:12:59;21.10;99.90
34829;DHT22;21042;47.620;12.188;2023-09-12T08:15:26;21.20;99.90
34829;DHT22;21042;47.620;12.188;2023-09-12T08:17:53;21.20;99.90
34829;DHT22;21042;47.620;12.188;2023-09-12T08:20:20;21.30;99.90
34829;DHT22;21042;47.620;12.188;2023-09-12T08:22:47;21.50;99.90
34829;DHT22;21042;47.620;12.188;2023-09-12T08:25:15;21.70;99.90
34829;DHT22;21042;47.620;12.188;2023-09-12T08:27:42;21.80;99.90
34829;DHT22;21042;47.620;12.188;2023-09-12T08:30:10;21.80;99.90
34829;DHT22;21042;47.620;12.188;2023-09-12T08:32:37;21.90;99.90
34829;DHT22;21042;47.620;12.188;2023-09-12T08:35:06;21.80;99.90
34829;DHT22;21042;47.620;12.188;2023-09-12T08:37:33;22.00;99.90
34829;DHT22;21042;47.620;12.188;2023-09-12T08:40:00;22.00;99.90
34829;DHT22;21042;47.620;12.188;2023-09-12T08:42:27;22.10;99.90
34829;DHT22;21042;47.620;12.188;2023-09-12T08:44:55;22.40;99.90
34829;DHT22;21042;47.620;12.188;2023-09-12T08:47:22;22.60;99.90
34829;DHT22;21042;47.620;12.188;2023-09-12T08:49:49;22.80;99.90
34829;DHT22;21042;47.620;12.188;2023-09-12T08:52:16;22.90;99.90
34829;DHT22;21042;47.620;12.188;2023-09-12T08:54:43;22.90;99.90
34829;DHT22;21042;47.620;12.188;2023-09-12T08:57:10;23.00;99.90
34829;DHT22;21042;47.620;12.188;2023-09-12T08:59:37;23.00;99.90
34829;DHT22;21042;47.620;12.188;2023-09-12T09:02:05;22.90;99.90
34829;DHT22;21042;47.620;12.188;2023-09-12T09:04:34;22.80;99.90
34829;DHT22;21042;47.620;12.188;2023-09-12T09:07:01;22.80;99.90
34829;DHT22;21042;47.620;12.188;2023-09-12T09:09:29;22.90;99.90
34829;DHT22;21042;47.620;12.188;2023-09-12T09:11:57;23.00;99.90
34829;DHT22;21042;47.620;12.188;2023-09-12T09:14:23;23.10;99.90
34829;DHT22;21042;47.620;12.188;2023-09-12T09:16:50;23.20;99.90
34829;DHT22;21042;47.620;12.188;2023-09-12T09:19:17;23.30;99.90
34829;DHT22;21042;47.620;12.188;2023-09-12T09:21:46;23.40;99.90
34829;DHT22;21042;47.620;12.188;2023-09-12T09:24:13;23.50;99.90
34829;DHT22;21042;47.620;12.188;2023-09-12T09:26:50;23.80;99.90
34829;DHT22;21042;47.620;12.188;2023-09-12T09:29:18;23.90;99.90
34829;DHT22;21042;47.620;12.188;2023-09-12T09:31:46;24.00;99.90
34829;DHT22;21042;47.620;12.188;2023-09-12T09:34:14;24.10;99.90
34829;DHT22;21042;47.620;12.188;2023-09-12T09:36:43;24.20;99.90
34829;DHT22;21042;47.620;12.188;2023-09-12T09:39:10;24.30;99.90
34829;DHT22;21042;47.620;12.188;2023-09-12T09:41:38;24.30;99.90
34829;DHT22;21042;47.620;12.188;2023-09-12T09:44:06;24.30;99.90
34829;DHT22;21042;47.620;12.188;2023-09-12T09:46:34;24.30;99.90
34829;DHT22;21042;47.620;12.188;2023-09-12T09:49:01;24.40;99.90
34829;DHT22;21042;47.620;12.188;2023-09-12T09:51:29;24.50;99.90
34829;DHT22;21042;47.620;12.188;2023-09-12T09:53:56;24.60;99.90
34829;DHT22;21042;47.620;12.188;2023-09-12T09:56:24;24.70;99.90
34829;DHT22;21042;47.620;12.188;2023-09-12T09:58:55;24.90;99.90
34829;DHT22;21042;47.620;12.188;2023-09-12T10:01:31;25.00;99.90
34829;DHT22;21042;47.620;12.188;2023-09-12T10:03:59;25.00;99.90
34829;DHT22;21042;47.620;12.188;2023-09-12T10:06:29;25.10;99.90
34829;DHT22;21042;47.620;12.188;2023-09-12T10:08:57;25.30;99.90
34829;DHT22;21042;47.620;12.188;2023-09-12T10:11:25;25.40;99.90
34829;DHT22;21042;47.620;12.188;2023-09-12T10:13:54;25.40;99.90
34829;DHT22;21042;47.620;12.188;2023-09-12T10:16:25;25.30;99.90
34829;DHT22;21042;47.620;12.188;2023-09-12T10:18:58;25.30;99.90
34829;DHT22;21042;47.620;12.188;2023-09-12T10:21:29;25.40;99.90
34829;DHT22;21042;47.620;12.188;2023-09-12T10:23:58;25.50;99.90
34829;DHT22;21042;47.620;12.188;2023-09-12T10:26:25;25.70;99.90
34829;DHT22;21042;47.620;12.188;2023-09-12T10:28:52;25.70;99.90
34829;DHT22;21042;47.620;12.188;2023-09-12T10:31:19;25.90;99.90
34829;DHT22;21042;47.620;12.188;2023-09-12T10:33:46;26.10;99.90
34829;DHT22;21042;47.620;12.188;2023-09-12T10:36:13;26.30;99.90
34829;DHT22;21042;47.620;12.188;2023-09-12T10:38:41;26.40;99.90
34829;DHT22;21042;47.620;12.188;2023-09-12T10:41:13;26.40;99.90
34829;DHT22;21042;47.620;12.188;2023-09-12T10:43:44;26.40;99.90
34829;DHT22;21042;47.620;12.188;2023-09-12T10:46:16;26.30;99.90
34829;DHT22;21042;47.620;12.188;2023-09-12T10:48:43;26.30;99.90
34829;DHT22;21042;47.620;12.188;2023-09-12T10:51:10;26.20;99.90
34829;DHT22;21042;47.620;12.188;2023-09-12T10:53:39;26.10;99.90
34829;DHT22;21042;47.620;12.188;2023-09-12T11:01:25;26.20;99.90
34829;DHT22;21042;47.620;12.188;2023-09-12T11:03:52;26.30;99.90
34829;DHT22;21042;47.620;12.188;2023-09-12T11:06:19;26.30;99.90
34829;DHT22;21042;47.620;12.188;2023-09-12T11:09:02;26.50;99.90
34829;DHT22;21042;47.620;12.188;2023-09-12T11:11:33;26.70;99.90
34829;DHT22;21042;47.620;12.188;2023-09-12T11:14:03;26.80;99.90
34829;DHT22;21042;47.620;12.188;2023-09-12T11:16:30;26.80;99.90
34829;DHT22;21042;47.620;12.188;2023-09-12T11:21:59;26.60;99.90
34829;DHT22;21042;47.620;12.188;2023-09-12T11:24:26;26.70;99.90
34829;DHT22;21042;47.620;12.188;2023-09-12T11:26:54;26.70;99.90
34829;DHT22;21042;47.620;12.188;2023-09-12T11:29:21;26.70;99.90
34829;DHT22;21042;47.620;12.188;2023-09-12T11:31:53;26.70;99.90
34829;DHT22;21042;47.620;12.188;2023-09-12T11:34:20;26.70;99.90
34829;DHT22;21042;47.620;12.188;2023-09-12T11:36:47;26.70;99.90
34829;DHT22;21042;47.620;12.188;2023-09-12T11:39:23;26.80;99.90
34829;DHT22;21042;47.620;12.188;2023-09-12T11:41:53;26.80;99.90
34829;DHT22;21042;47.620;12.188;2023-09-12T11:44:21;27.00;99.90
34829;DHT22;21042;47.620;12.188;2023-09-12T11:46:49;27.30;99.90
34829;DHT22;21042;47.620;12.188;2023-09-12T11:49:16;27.40;99.90
34829;DHT22;21042;47.620;12.188;2023-09-12T11:51:47;27.60;99.90
34829;DHT22;21042;47.620;12.188;2023-09-12T11:54:15;27.50;99.90
34829;DHT22;21042;47.620;12.188;2023-09-12T11:56:41;27.70;99.90
34829;DHT22;21042;47.620;12.188;2023-09-12T11:59:08;27.70;99.90
34829;DHT22;21042;47.620;12.188;2023-09-12T12:01:38;27.70;99.90
34829;DHT22;21042;47.620;12.188;2023-09-12T12:04:04;27.60;99.90
34829;DHT22;21042;47.620;12.188;2023-09-12T12:06:33;27.90;99.90
34829;DHT22;21042;47.620;12.188;2023-09-12T12:09:02;28.00;99.90
34829;DHT22;21042;47.620;12.188;2023-09-12T12:11:31;28.10;99.90
34829;DHT22;21042;47.620;12.188;2023-09-12T12:13:58;28.30;99.90
34829;DHT22;21042;47.620;12.188;2023-09-12T12:16:34;28.40;99.90
34829;DHT22;21042;47.620;12.188;2023-09-12T12:19:01;28.30;99.90
34829;DHT22;21042;47.620;12.188;2023-09-12T12:21:28;27.90;99.90
34829;DHT22;21042;47.620;12.188;2023-09-12T12:24:01;27.60;99.90
34829;DHT22;21042;47.620;12.188;2023-09-12T12:26:32;27.40;99.90
34829;DHT22;21042;47.620;12.188;2023-09-12T12:29:00;27.10;99.90
34829;DHT22;21042;47.620;12.188;2023-09-12T12:31:27;26.90;99.90
34829;DHT22;21042;47.620;12.188;2023-09-12T12:33:58;26.80;99.90
34829;DHT22;21042;47.620;12.188;2023-09-12T12:36:46;26.90;99.90
34829;DHT22;21042;47.620;12.188;2023-09-12T12:39:23;27.10;99.90
34829;DHT22;21042;47.620;12.188;2023-09-12T12:41:53;27.40;99.90
34829;DHT22;21042;47.620;12.188;2023-09-12T12:44:21;27.70;99.90
34829;DHT22;21042;47.620;12.188;2023-09-12T12:46:52;28.20;99.90
34829;DHT22;21042;47.620;12.188;2023-09-12T12:49:19;28.70;99.90
34829;DHT22;21042;47.620;12.188;2023-09-12T12:51:46;29.10;99.90
34829;DHT22;21042;47.620;12.188;2023-09-12T12:54:13;28.90;99.90
34829;DHT22;21042;47.620;12.188;2023-09-12T12:56:40;29.00;99.90
34829;DHT22;21042;47.620;12.188;2023-09-12T12:59:10;28.80;99.90
34829;DHT22;21042;47.620;12.188;2023-09-12T13:01:37;28.30;99.90
34829;DHT22;21042;47.620;12.188;2023-09-12T13:04:05;28.20;99.90
34829;DHT22;21042;47.620;12.188;2023-09-12T13:06:32;28.20;99.90
34829;DHT22;21042;47.620;12.188;2023-09-12T13:09:03;28.30;99.90
34829;DHT22;21042;47.620;12.188;2023-09-12T13:11:32;28.40;99.90
34829;DHT22;21042;47.620;12.188;2023-09-12T13:14:01;28.40;99.90
34829;DHT22;21042;47.620;12.188;2023-09-12T13:16:29;28.50;99.90
34829;DHT22;21042;47.620;12.188;2023-09-12T13:18:56;28.50;99.90
34829;DHT22;21042;47.620;12.188;2023-09-12T13:21:23;28.60;99.90
34829;DHT22;21042;47.620;12.188;2023-09-12T13:23:50;28.40;99.90
34829;DHT22;21042;47.620;12.188;2023-09-12T13:26:16;28.10;99.90
34829;DHT22;21042;47.620;12.188;2023-09-12T13:28:43;27.90;99.90
34829;DHT22;21042;47.620;12.188;2023-09-12T13:31:10;27.70;99.90
34829;DHT22;21042;47.620;12.188;2023-09-12T13:33:36;27.70;99.90
34829;DHT22;21042;47.620;12.188;2023-09-12T13:36:03;27.70;99.90
34829;DHT22;21042;47.620;12.188;2023-09-12T13:38:30;27.70;99.90
34829;DHT22;21042;47.620;12.188;2023-09-12T13:40:56;27.80;99.90
34829;DHT22;21042;47.620;12.188;2023-09-12T13:43:23;27.80;99.90
34829;DHT22;21042;47.620;12.188;2023-09-12T13:45:50;27.90;99.90
34829;DHT22;21042;47.620;12.188;2023-09-12T13:48:17;27.80;99.90
34829;DHT22;21042;47.620;12.188;2023-09-12T13:50:44;27.80;99.90
34829;DHT22;21042;47.620;12.188;2023-09-12T13:53:11;27.80;99.90
34829;DHT22;21042;47.620;12.188;2023-09-12T13:55:38;27.80;99.90
34829;DHT22;21042;47.620;12.188;2023-09-12T13:58:24;27.70;99.90
34829;DHT22;21042;47.620;12.188;2023-09-12T14:00:58;27.80;99.90
34829;DHT22;21042;47.620;12.188;2023-09-12T14:03:25;27.90;99.90
34829;DHT22;21042;47.620;12.188;2023-09-12T14:05:55;28.00;99.90
34829;DHT22;21042;47.620;12.188;2023-09-12T14:08:22;27.90;99.90
34829;DHT22;21042;47.620;12.188;2023-09-12T14:10:49;27.90;99.90
34829;DHT22;21042;47.620;12.188;2023-09-12T14:13:17;27.80;99.90
34829;DHT22;21042;47.620;12.188;2023-09-12T14:15:48;27.80;99.90
34829;DHT22;21042;47.620;12.188;2023-09-12T14:18:17;27.80;99.90
34829;DHT22;21042;47.620;12.188;2023-09-12T14:20:45;27.90;99.90
34829;DHT22;21042;47.620;12.188;2023-09-12T14:23:14;28.00;99.90
34829;DHT22;21042;47.620;12.188;2023-09-12T14:25:41;28.00;99.90
34829;DHT22;21042;47.620;12.188;2023-09-12T14:28:09;27.90;99.90
34829;DHT22;21042;47.620;12.188;2023-09-12T14:30:37;28.00;99.90
34829;DHT22;21042;47.620;12.188;2023-09-12T14:33:05;27.90;99.90
34829;DHT22;21042;47.620;12.188;2023-09-12T14:35:32;27.90;99.90
34829;DHT22;21042;47.620;12.188;2023-09-12T14:37:58;27.90;99.90
34829;DHT22;21042;47.620;12.188;2023-09-12T14:40:26;27.80;99.90
34829;DHT22;21042;47.620;12.188;2023-09-12T14:42:54;27.80;99.90
34829;DHT22;21042;47.620;12.188;2023-09-12T14:45:21;27.80;99.90
34829;DHT22;21042;47.620;12.188;2023-09-12T14:47:47;27.70;99.90
34829;DHT22;21042;47.620;12.188;2023-09-12T14:50:14;27.60;99.90
34829;DHT22;21042;47.620;12.188;2023-09-12T14:52:41;27.60;99.90
34829;DHT22;21042;47.620;12.188;2023-09-12T14:55:09;27.50;99.90
34829;DHT22;21042;47.620;12.188;2023-09-12T14:57:36;27.60;99.90
34829;DHT22;21042;47.620;12.188;2023-09-12T15:00:03;27.60;99.90
34829;DHT22;21042;47.620;12.188;2023-09-12T15:02:30;27.60;99.90
34829;DHT22;21042;47.620;12.188;2023-09-12T15:05:00;27.60;99.90
34829;DHT22;21042;47.620;12.188;2023-09-12T15:07:27;27.50;99.90
34829;DHT22;21042;47.620;12.188;2023-09-12T15:09:56;27.50;99.90
34829;DHT22;21042;47.620;12.188;2023-09-12T15:12:23;27.50;99.90
34829;DHT22;21042;47.620;12.188;2023-09-12T15:14:50;27.40;99.90
34829;DHT22;21042;47.620;12.188;2023-09-12T15:17:18;27.30;99.90
34829;DHT22;21042;47.620;12.188;2023-09-12T15:19:44;27.30;99.90
34829;DHT22;21042;47.620;12.188;2023-09-12T15:22:11;27.30;99.90
34829;DHT22;21042;47.620;12.188;2023-09-12T15:24:39;27.30;99.90
34829;DHT22;21042;47.620;12.188;2023-09-12T15:27:06;27.30;99.90
34829;DHT22;21042;47.620;12.188;2023-09-12T15:29:33;27.20;99.90